Time;durP1;ratioP1;P1;durP2;ratioP2;P2;SDS_P1;SDS_P2;PMS_P1;PMS_P2;Temp;Humidity;BMP_temperature;BMP_pressure;BME280_temperature;BME280_humidity;BME280_pressure;Samples;Min_cycle;Max_cycle;Signal;HPM_P1;HPM_P2
2022/01/08 00:09:41;;;;;;;237.13;90.37;;;;;;;-8.26;74.62;99090.66;3996567;89;21102;-92
2022/01/08 01:51:27;;;;;;;168.37;59.70;;;;;;;-9.21;75.76;98992.80;3976212;84;21610;-91
2022/01/08 05:05:41;;;;;;;76.83;28.33;;;;;;;-9.37;78.23;98860.62;4149772;84;21101;-81
2022/01/08 05:11:43;;;;;;;76.27;28.33;;;;;;;-9.37;78.44;98859.80;4158558;84;20998;-80
2022/01/08 05:18:19;;;;;;;81.47;28.03;;;;;;;-9.30;78.25;98863.07;4566328;76;22231;-80
2022/01/08 05:24:20;;;;;;;67.77;25.53;;;;;;;-9.43;78.31;98860.81;4469407;78;21510;-80
2022/01/08 05:30:23;;;;;;;77.10;26.53;;;;;;;-9.47;78.40;98856.52;4472595;78;21572;-80
2022/01/08 05:36:25;;;;;;;75.33;26.33;;;;;;;-9.45;78.41;98861.06;4469485;78;21017;-80
2022/01/08 05:42:26;;;;;;;74.47;25.30;;;;;;;-9.49;78.56;98859.97;4462493;78;21578;-80
2022/01/08 05:48:27;;;;;;;62.77;25.00;;;;;;;-9.51;78.50;98867.36;4454713;78;21035;-80
2022/01/08 05:54:29;;;;;;;64.97;24.23;;;;;;;-9.40;78.89;98856.33;4462100;78;21626;-80
2022/01/08 06:00:30;;;;;;;65.27;25.03;;;;;;;-9.39;78.53;98862.70;4472135;78;21089;-80
2022/01/08 06:06:31;;;;;;;64.20;23.13;;;;;;;-9.55;78.33;98858.84;4473279;78;21015;-80
2022/01/08 06:12:33;;;;;;;63.17;22.43;;;;;;;-9.40;79.34;98877.53;4476337;78;21053;-80
2022/01/08 06:18:35;;;;;;;62.57;23.83;;;;;;;-9.34;78.72;98863.28;4468687;78;21024;-80
2022/01/08 06:24:36;;;;;;;48.17;19.83;;;;;;;-9.60;78.38;98866.20;4462716;78;21511;-80
2022/01/08 06:30:38;;;;;;;71.73;26.20;;;;;;;-9.69;79.96;98856.30;4469891;78;20991;-80
2022/01/08 06:36:39;;;;;;;65.40;25.23;;;;;;;-9.71;79.32;98859.71;4480244;78;21025;-80
2022/01/08 06:42:41;;;;;;;80.67;27.70;;;;;;;-9.56;79.61;98859.87;4462998;78;21093;-80
2022/01/08 06:48:42;;;;;;;75.47;27.73;;;;;;;-9.57;78.82;98840.54;4476101;78;21475;-80
2022/01/08 06:54:43;;;;;;;66.93;26.60;;;;;;;-9.55;79.16;98852.21;4306952;81;22215;-80
2022/01/08 07:00:45;;;;;;;67.47;28.30;;;;;;;-9.50;79.50;98857.02;4372205;80;21725;-79
2022/01/08 07:06:46;;;;;;;74.07;28.00;;;;;;;-9.38;79.43;98857.67;4365622;80;21062;-80
2022/01/08 07:12:47;;;;;;;70.00;29.27;;;;;;;-9.22;79.77;98858.65;4353702;80;21054;-80
2022/01/08 07:18:48;;;;;;;74.00;29.63;;;;;;;-9.10;80.21;98856.11;4297223;81;21029;-80
2022/01/08 07:24:50;;;;;;;78.77;31.53;;;;;;;-8.96;80.08;98854.64;4336530;80;20963;-80
2022/01/08 07:30:51;;;;;;;74.03;31.70;;;;;;;-8.77;80.28;98853.18;4340475;81;21551;-80
2022/01/08 07:36:52;;;;;;;82.80;34.70;;;;;;;-8.62;80.61;98849.33;4326347;81;21016;-79
2022/01/08 07:42:53;;;;;;;93.90;38.40;;;;;;;-8.34;80.98;98847.66;4318640;81;20995;-82
2022/01/08 07:48:54;;;;;;;86.70;36.00;;;;;;;-7.86;81.53;98833.23;4352141;80;21647;-80
2022/01/08 07:54:55;;;;;;;90.97;35.93;;;;;;;-7.22;81.62;98833.13;4350438;80;21069;-81
2022/01/08 08:00:57;;;;;;;99.93;40.53;;;;;;;-6.40;82.10;98822.75;4341204;80;20986;-82
2022/01/08 08:06:58;;;;;;;125.60;47.13;;;;;;;-5.78;81.57;98812.39;4323108;80;21838;-81
2022/01/08 08:13:00;;;;;;;115.53;44.53;;;;;;;-5.38;81.85;98818.30;4341976;80;21020;-82
2022/01/08 08:19:01;;;;;;;112.13;43.40;;;;;;;-4.94;81.63;98814.27;4351041;80;21505;-82
2022/01/08 08:25:03;;;;;;;180.40;59.00;;;;;;;-4.54;81.10;98810.46;4356160;80;21010;-82
2022/01/08 08:31:05;;;;;;;129.53;46.63;;;;;;;-4.39;80.73;98816.98;4348377;80;21094;-83
2022/01/08 08:37:06;;;;;;;116.40;46.97;;;;;;;-4.46;80.50;98814.64;4348904;80;21008;-82
2022/01/08 08:43:07;;;;;;;111.10;48.30;;;;;;;-4.41;80.82;98815.12;4357343;80;21050;-82
2022/01/08 08:49:16;;;;;;;100.70;38.60;;;;;;;-4.01;81.44;98804.02;4306327;81;21089;-83
2022/01/08 08:55:20;;;;;;;92.07;35.93;;;;;;;-3.38;81.00;98814.70;4345661;81;21018;-83
2022/01/08 09:01:22;;;;;;;97.40;37.57;;;;;;;-3.05;79.90;98807.56;4308327;81;21357;-83
2022/01/08 09:07:25;;;;;;;84.37;32.47;;;;;;;-3.06;79.53;98805.42;4424566;79;21546;-83
2022/01/08 09:13:28;;;;;;;85.47;35.47;;;;;;;-3.14;79.62;98819.99;4426798;78;21013;-84
2022/01/08 09:19:30;;;;;;;80.00;34.60;;;;;;;-3.00;79.50;98808.80;4304438;81;21043;-83
2022/01/08 09:25:32;;;;;;;85.53;36.17;;;;;;;-2.79;79.70;98799.37;4337795;81;21031;-83
2022/01/08 09:31:38;;;;;;;103.20;37.33;;;;;;;-2.54;80.08;98801.62;4335246;82;21507;-82
2022/01/08 09:37:42;;;;;;;;;;;;;;;-2.53;79.96;98789.80;4337441;82;21020;-83
2022/01/08 09:43:45;;;;;;;101.97;41.40;;;;;;;-2.43;80.27;98797.14;4330730;80;20186;-83
2022/01/08 09:49:46;;;;;;;98.17;37.97;;;;;;;-2.31;79.85;98785.92;4337830;80;21018;-83
2022/01/08 09:55:50;;;;;;;84.57;35.20;;;;;;;-2.18;79.90;98779.80;4338882;82;21586;-83
2022/01/08 10:01:59;;;;;;;84.50;34.80;;;;;;;-2.07;79.58;98777.94;4337070;80;21018;-83
2022/01/08 10:08:01;;;;;;;80.70;34.13;;;;;;;-1.93;79.88;98774.73;4337501;82;20990;-82
2022/01/08 10:14:14;;;;;;;83.60;34.67;;;;;;;-1.85;80.23;98771.89;4335682;82;21006;-83
2022/01/08 10:20:16;;;;;;;82.20;32.57;;;;;;;-1.71;80.32;98772.11;4340033;81;21066;-83
2022/01/08 10:26:22;;;;;;;67.67;27.30;;;;;;;-1.47;80.46;98771.09;4288440;81;21065;-82
2022/01/08 10:32:28;;;;;;;68.37;28.40;;;;;;;-1.29;80.35;98770.14;4303599;82;21032;-83
2022/01/08 10:38:30;;;;;;;63.23;29.27;;;;;;;-1.21;80.24;98755.45;4301212;81;21048;-83
2022/01/08 10:44:32;;;;;;;62.80;27.37;;;;;;;-1.10;80.47;98762.17;4298813;81;21020;-83
2022/01/08 10:50:33;;;;;;;61.02;29.05;;;;;;;-1.02;80.40;98760.11;4299698;81;21021;-83
2022/01/08 10:56:49;;;;;;;71.63;32.83;;;;;;;-0.87;79.87;98752.21;4318024;82;21071;-85
2022/01/08 11:02:51;;;;;;;55.93;23.27;;;;;;;-0.68;79.79;98752.81;4285431;81;21094;-83
2022/01/08 11:23:04;;;;;;;52.73;25.57;;;;;;;-0.15;78.53;98727.99;4302849;81;25081;-85
2022/01/08 11:29:06;;;;;;;56.68;26.80;;;;;;;0.03;78.36;98718.08;4108629;85;21027;-85
2022/01/08 11:42:13;;;;;;;48.00;22.13;;;;;;;0.39;77.29;98719.44;4085163;86;21042;-86
2022/01/08 11:48:31;;;;;;;56.60;25.17;;;;;;;0.56;76.82;98724.03;4080919;86;21091;-86
2022/01/08 11:54:49;;;;;;;53.25;24.95;;;;;;;0.65;76.56;98718.89;4098346;86;20992;-86
2022/01/08 12:01:29;;;;;;;52.25;24.25;;;;;;;0.65;76.23;98714.85;4100764;86;21564;-87
2022/01/08 12:07:49;;;;;;;57.17;23.55;;;;;;;0.70;76.64;98715.24;4079265;86;21473;-87
2022/01/08 12:13:50;;;;;;;57.43;24.23;;;;;;;0.70;75.92;98707.97;4001970;86;150299;-87
2022/01/08 12:26:36;;;;;;;52.88;22.55;;;;;;;0.72;75.59;98702.25;4146952;83;38500;-87
2022/01/08 12:32:40;;;;;;;51.48;21.33;;;;;;;0.73;75.33;98703.28;4119832;85;20998;-86
2022/01/08 12:38:41;;;;;;;54.90;22.15;;;;;;;0.73;74.78;98701.14;4108416;85;21028;-89
2022/01/08 12:44:45;;;;;;;48.52;20.80;;;;;;;0.71;74.76;98688.53;4118780;84;21016;-88
2022/01/08 12:50:55;;;;;;;53.83;23.57;;;;;;;0.68;74.60;98685.92;4077395;85;21044;-88
2022/01/08 12:57:05;;;;;;;58.73;26.20;;;;;;;0.60;74.38;98684.57;4052185;85;21069;-87
2022/01/08 13:03:03;;;;;;;61.45;26.15;;;;;;;0.58;74.34;98681.42;4104373;86;21528;-87
2022/01/08 13:09:06;;;;;;;54.75;25.57;;;;;;;0.57;74.08;98690.05;4162593;85;21120;-87
2022/01/08 13:15:09;;;;;;;56.70;25.40;;;;;;;0.58;74.06;98692.97;4161122;83;21111;-86
2022/01/08 13:21:16;;;;;;;52.55;22.32;;;;;;;0.58;74.58;98688.16;4109866;85;21086;-86
2022/01/08 13:27:23;;;;;;;56.88;25.02;;;;;;;0.57;73.85;98680.63;4104774;84;21098;-87
2022/01/08 13:33:29;;;;;;;54.13;23.92;;;;;;;0.55;74.01;98665.32;4111934;86;21058;-87
2022/01/08 13:39:51;;;;;;;52.73;24.55;;;;;;;0.57;73.91;98672.54;4110445;86;21031;-87
2022/01/08 13:45:53;;;;;;;60.08;27.98;;;;;;;0.54;73.64;98674.52;3898690;90;21136;-86
2022/01/08 13:52:15;;;;;;;48.92;21.82;;;;;;;0.48;73.62;98677.14;3904375;87;21149;-86
2022/01/08 13:58:34;;;;;;;46.13;20.48;;;;;;;0.30;74.27;98674.19;4171547;84;21035;-86
2022/01/08 14:04:46;;;;;;;66.70;27.90;;;;;;;0.28;73.84;98670.23;4173849;84;20993;-86
2022/01/08 14:11:05;;;;;;;65.80;27.65;;;;;;;0.30;73.76;98673.41;4163679;84;22032;-86
2022/01/08 14:17:28;;;;;;;59.50;26.57;;;;;;;0.29;73.51;98658.34;4162723;83;21557;-86
2022/01/08 14:23:41;;;;;;;56.88;26.50;;;;;;;0.27;73.53;98661.36;4163767;83;21060;-86
2022/01/08 14:43:05;;;;;;;57.62;27.42;;;;;;;0.12;73.49;98654.30;4139442;83;21063;-86
2022/01/08 15:02:06;;;;;;;83.95;37.75;;;;;;;-0.19;73.82;98638.27;3921737;89;21067;-87
2022/01/08 15:15:16;;;;;;;116.00;49.10;;;;;;;-0.25;73.97;98626.84;3942219;87;21596;-88
2022/01/08 15:21:17;;;;;;;92.40;42.90;;;;;;;-0.27;73.61;98623.67;3983574;87;22077;-87
2022/01/08 15:27:25;;;;;;;86.42;38.75;;;;;;;-0.29;73.72;98624.55;4120292;85;21033;-87
2022/01/08 15:33:26;;;;;;;91.90;39.73;;;;;;;-0.32;73.57;98611.73;4133234;84;21076;-88
2022/01/08 15:39:30;;;;;;;87.20;36.80;;;;;;;-0.35;73.91;98612.91;4100976;86;21033;-86
2022/01/08 15:45:38;;;;;;;94.15;37.78;;;;;;;-0.36;73.91;98622.86;4113769;85;20990;-87
2022/01/08 15:51:42;;;;;;;95.47;41.83;;;;;;;-0.37;74.62;98605.69;4125741;84;21026;-87
2022/01/08 15:57:45;;;;;;;86.75;36.83;;;;;;;-0.41;74.08;98600.14;4108346;85;21074;-88
2022/01/08 16:03:46;;;;;;;84.20;38.15;;;;;;;-0.46;73.92;98594.93;4111584;85;21608;-87
2022/01/08 16:09:48;;;;;;;126.02;50.92;;;;;;;-0.70;73.84;98557.44;4121551;85;21114;-86
2022/01/08 16:15:51;;;;;;;136.72;50.58;;;;;;;-0.49;73.57;98581.31;4227766;82;21567;-86
2022/01/08 16:21:52;;;;;;;142.50;53.05;;;;;;;-0.49;73.57;98581.31;4172296;83;21048;-87
2022/01/08 16:27:54;;;;;;;119.85;48.92;;;;;;;-0.47;73.71;98577.19;4168210;83;21028;-86
2022/01/08 16:33:55;;;;;;;107.30;46.58;;;;;;;-0.61;73.53;98552.33;4158930;82;21612;-88
2022/01/08 16:39:57;;;;;;;90.07;40.85;;;;;;;-0.50;73.52;98569.75;4162538;82;21067;-87
2022/01/08 16:45:58;;;;;;;86.72;37.98;;;;;;;-0.50;73.52;98569.75;4172748;84;21069;-88
2022/01/08 16:52:01;;;;;;;97.57;40.60;;;;;;;-0.46;73.54;98578.80;4174875;83;21039;-87
2022/01/08 16:58:03;;;;;;;95.05;41.28;;;;;;;-0.48;73.42;98569.44;4162536;83;21051;-87
2022/01/08 17:04:04;;;;;;;94.83;39.13;;;;;;;-0.48;73.42;98569.44;4167224;84;21009;-87
2022/01/08 17:10:07;;;;;;;103.58;44.65;;;;;;;-0.50;74.06;98571.67;4173984;83;21036;-87
2022/01/08 17:16:10;;;;;;;104.00;44.53;;;;;;;-0.50;74.22;98564.95;4174234;83;21632;-87
2022/01/08 17:22:11;;;;;;;105.43;47.00;;;;;;;-0.64;74.20;98540.09;4186594;82;21128;-87
2022/01/08 17:28:12;;;;;;;112.85;48.98;;;;;;;-0.63;74.15;98550.53;4169726;83;21509;-88
2022/01/08 17:34:13;;;;;;;173.20;66.33;;;;;;;-0.62;74.45;98540.55;4173775;84;21036;-87
2022/01/08 17:40:15;;;;;;;185.75;70.00;;;;;;;-0.62;74.45;98540.55;4176775;83;21055;-87
2022/01/08 17:46:16;;;;;;;165.55;72.58;;;;;;;-0.64;74.20;98538.17;4157175;83;21044;-88
2022/01/08 17:52:19;;;;;;;128.40;54.10;;;;;;;-0.66;74.23;98531.54;4174923;83;21409;-87
2022/01/08 17:58:20;;;;;;;127.38;51.15;;;;;;;-0.70;73.87;98509.86;4260536;81;37168;-87
2022/01/08 18:04:21;;;;;;;130.40;54.18;;;;;;;-0.70;73.87;98509.86;4287594;81;21058;-88
2022/01/08 18:10:23;;;;;;;119.85;50.40;;;;;;;-0.72;75.23;98548.92;4303521;81;21077;-89
2022/01/08 18:16:25;;;;;;;105.43;44.10;;;;;;;-0.84;74.42;98528.01;4275483;81;21062;-87
2022/01/08 18:22:26;;;;;;;95.30;43.50;;;;;;;-0.84;74.44;98510.54;4301124;81;20999;-88
2022/01/08 18:28:27;;;;;;;107.70;46.77;;;;;;;-0.82;74.60;98508.34;4291095;80;21063;-88
2022/01/08 18:34:29;;;;;;;106.55;48.05;;;;;;;-0.77;74.60;98501.48;4279683;81;21054;-88
2022/01/08 18:40:30;;;;;;;85.17;38.85;;;;;;;-0.77;74.63;98497.45;4280681;79;20988;-88
2022/01/08 18:46:32;;;;;;;135.85;58.52;;;;;;;-0.78;74.51;98482.95;4304065;81;21035;-88
2022/01/08 18:52:33;;;;;;;122.42;53.17;;;;;;;-0.81;74.44;98470.94;4284989;81;21070;-89
2022/01/08 18:58:35;;;;;;;119.02;51.35;;;;;;;-0.78;74.43;98456.08;4291988;80;21540;-87
2022/01/08 19:04:38;;;;;;;106.60;44.60;;;;;;;-0.78;74.47;98452.05;4300420;81;21508;-87
2022/01/08 19:10:39;;;;;;;111.97;48.95;;;;;;;-0.81;74.80;98450.79;4289981;81;21047;-88
2022/01/08 19:16:40;;;;;;;108.57;47.05;;;;;;;-0.87;75.24;98435.12;4280964;81;21066;-88
2022/01/08 19:22:43;;;;;;;114.32;47.53;;;;;;;-0.82;75.31;98443.04;4295156;80;21000;-88
2022/01/08 19:28:44;;;;;;;106.52;46.10;;;;;;;-0.80;75.19;98428.17;4306895;81;21523;-88
2022/01/08 19:34:48;;;;;;;108.57;47.30;;;;;;;-0.86;75.53;98426.75;4191936;83;21120;-88
2022/01/08 19:40:51;;;;;;;94.65;40.92;;;;;;;-0.94;75.51;98412.74;4193982;83;21024;-87
2022/01/08 19:46:52;;;;;;;107.83;47.05;;;;;;;-1.04;76.06;98396.14;4191649;83;21490;-90
2022/01/08 19:52:54;;;;;;;99.60;43.58;;;;;;;-1.04;76.06;98396.14;4196714;83;21084;-88
2022/01/08 19:58:55;;;;;;;105.97;42.93;;;;;;;-1.14;76.01;98388.40;4205965;83;21008;-88
2022/01/08 20:04:57;;;;;;;111.55;48.90;;;;;;;-1.25;75.78;98391.91;4273150;81;21030;-87
2022/01/08 20:10:58;;;;;;;107.17;48.37;;;;;;;-1.30;76.00;98396.08;4288091;81;21502;-88
2022/01/08 20:17:00;;;;;;;120.95;54.50;;;;;;;-1.34;76.51;98384.94;4305831;81;21019;-88
2022/01/08 20:23:02;;;;;;;127.50;51.58;;;;;;;-1.39;75.87;98377.05;4248416;81;21519;-88
2022/01/08 20:29:03;;;;;;;127.83;55.60;;;;;;;-1.47;76.49;98370.52;4246063;82;21551;-88
2022/01/08 20:35:06;;;;;;;125.90;51.73;;;;;;;-1.57;76.49;98360.09;4247322;82;21035;-88
2022/01/08 20:41:08;;;;;;;130.00;54.33;;;;;;;-1.66;77.26;98356.02;4250063;82;21606;-89
2022/01/08 20:47:09;;;;;;;137.73;56.60;;;;;;;-1.72;77.41;98350.56;4247337;82;21035;-88
2022/01/08 20:53:10;;;;;;;151.20;63.93;;;;;;;-1.69;77.47;98343.23;4248875;82;20995;-89
2022/01/08 20:59:12;;;;;;;149.47;62.93;;;;;;;-1.71;77.46;98327.21;4245153;82;20988;-87
2022/01/08 21:05:13;;;;;;;150.83;62.97;;;;;;;-1.69;77.49;98315.59;4220070;82;21570;-88
2022/01/08 21:11:14;;;;;;;132.90;56.43;;;;;;;-1.62;77.78;98307.89;4244982;82;21360;-87
2022/01/08 21:17:18;;;;;;;146.93;61.02;;;;;;;-1.51;78.29;98303.81;4246616;82;21059;-89
2022/01/08 21:23:20;;;;;;;171.47;70.65;;;;;;;-1.57;78.14;98303.73;4256089;82;21090;-88
2022/01/08 21:29:21;;;;;;;217.22;98.92;;;;;;;-1.55;78.21;98293.45;4174034;82;21057;-88
2022/01/08 21:35:28;;;;;;;153.27;64.72;;;;;;;-1.57;78.28;98279.57;4159340;83;21057;-88
2022/01/08 21:41:26;;;;;;;151.15;70.80;;;;;;;-1.61;78.55;98271.35;4255435;82;21027;-89
2022/01/08 21:47:27;;;;;;;163.52;72.90;;;;;;;-1.66;78.68;98258.64;4227867;83;21523;-87
2022/01/08 21:53:30;;;;;;;178.60;77.27;;;;;;;-1.70;78.71;98240.23;4240326;83;21027;-88
2022/01/08 21:59:32;;;;;;;189.05;81.50;;;;;;;-1.71;78.89;98237.32;4258960;82;21050;-87
2022/01/08 22:05:35;;;;;;;152.72;66.95;;;;;;;-1.71;78.82;98231.95;4178213;84;21033;-87
2022/01/08 22:11:38;;;;;;;176.27;78.40;;;;;;;-1.85;79.20;98218.66;4193968;84;21027;-87
2022/01/08 22:17:40;;;;;;;177.67;77.63;;;;;;;-1.92;79.38;98222.36;4182971;84;21057;-87
2022/01/08 22:23:41;;;;;;;183.23;82.60;;;;;;;-1.98;79.58;98215.57;4196986;83;21115;-86
2022/01/08 22:29:42;;;;;;;184.20;78.97;;;;;;;-1.98;79.86;98207.52;4214306;83;22287;-87
2022/01/08 22:35:44;;;;;;;203.30;87.47;;;;;;;-1.94;79.90;98203.09;4214608;82;21044;-87
2022/01/08 22:41:49;;;;;;;186.90;83.50;;;;;;;-1.97;79.92;98204.27;4210730;83;21074;-86
2022/01/08 22:47:50;;;;;;;212.60;92.60;;;;;;;-1.95;80.38;98202.87;4213365;83;21540;-86
2022/01/08 22:53:53;;;;;;;228.47;95.83;;;;;;;-1.96;80.10;98185.75;4210347;83;21575;-86
2022/01/08 22:59:54;;;;;;;207.47;88.80;;;;;;;-1.95;80.25;98184.09;4211295;84;21145;-86
2022/01/08 23:06:01;;;;;;;181.23;81.17;;;;;;;-1.92;80.62;98166.58;4207838;82;21091;-86
2022/01/08 23:12:03;;;;;;;202.10;83.83;;;;;;;-1.94;80.75;98163.41;4212675;82;21036;-86
2022/01/08 23:18:05;;;;;;;183.10;81.17;;;;;;;-1.94;80.89;98160.19;4210521;83;21004;-86
2022/01/08 23:24:06;;;;;;;204.17;83.03;;;;;;;-1.89;81.48;98149.30;4225171;82;21580;-85
2022/01/08 23:30:09;;;;;;;188.53;80.23;;;;;;;-1.83;81.10;98125.78;4222540;82;21641;-86
2022/01/08 23:36:10;;;;;;;185.83;82.73;;;;;;;-1.90;81.10;98106.70;4277443;79;21350;-85
2022/01/08 23:42:11;;;;;;;186.57;80.03;;;;;;;-2.06;81.11;98102.36;4284305;81;21003;-85
2022/01/08 23:48:13;;;;;;;196.67;83.17;;;;;;;-2.16;81.64;98108.59;4306606;81;21073;-85
2022/01/08 23:54:15;;;;;;;190.47;79.67;;;;;;;-2.16;81.55;98103.98;4295747;80;21035;-85
